createdAt,value
2022-12-17T00:00:47.946Z,86.45
2022-12-17T00:03:33.229Z,87.03
2022-12-17T00:06:18.269Z,88.28
2022-12-17T00:09:03.334Z,79.75
2022-12-17T00:11:48.400Z,86.75
2022-12-17T00:14:33.180Z,86.40
2022-12-17T00:17:18.170Z,83.47
2022-12-17T00:20:03.012Z,87.90
2022-12-17T00:22:47.851Z,89.35
2022-12-17T00:25:32.759Z,92.55
2022-12-17T00:28:17.953Z,84.93
2022-12-17T00:31:09.699Z,89.53
2022-12-17T00:33:55.315Z,89.75
2022-12-17T00:36:41.446Z,87.80
2022-12-17T00:39:26.656Z,93.13
2022-12-17T00:42:11.665Z,94.68
2022-12-17T00:44:56.776Z,97.82
2022-12-17T00:47:41.703Z,85.20
2022-12-17T00:50:27.392Z,90.45
2022-12-17T00:53:13.017Z,88.97
2022-12-17T00:55:58.442Z,94.13
2022-12-17T00:58:43.318Z,87.40
2022-12-17T01:01:29.250Z,91.28
2022-12-17T01:04:14.595Z,100.72
2022-12-17T01:06:59.714Z,100.15
2022-12-17T01:09:48.583Z,107.10
2022-12-17T01:12:33.716Z,99.28
2022-12-17T01:15:18.647Z,96.82
2022-12-17T01:18:03.598Z,119.75
2022-12-17T01:20:48.769Z,113.93
2022-12-17T01:23:34.407Z,119.75
2022-12-17T01:26:20.856Z,112.53
2022-12-17T01:29:05.773Z,119.28
2022-12-17T01:31:51.031Z,133.20
2022-12-17T01:34:36.379Z,123.97
2022-12-17T01:37:21.980Z,137.18
2022-12-17T01:40:07.274Z,149.65
2022-12-17T01:42:57.511Z,126.28
2022-12-17T01:45:42.599Z,142.70
2022-12-17T01:48:32.356Z,118.78
2022-12-17T01:51:17.583Z,129.52
2022-12-17T01:54:08.528Z,134.90
2022-12-17T01:56:56.376Z,140.15
2022-12-17T01:59:46.038Z,109.38
2022-12-17T02:02:31.406Z,112.07
2022-12-17T02:05:16.894Z,124.10
2022-12-17T02:08:08.171Z,104.78
2022-12-17T02:11:12.630Z,161.60
2022-12-17T02:14:01.448Z,105.25
2022-12-17T02:17:03.868Z,81.65
2022-12-17T02:19:48.987Z,99.32
2022-12-17T02:22:56.342Z,86.80
2022-12-17T02:25:51.164Z,87.18
2022-12-17T02:28:37.345Z,80.40
2022-12-17T02:31:24.287Z,74.13
2022-12-17T02:34:09.877Z,69.10
2022-12-17T02:36:55.078Z,63.33
2022-12-17T02:39:48.035Z,68.35
2022-12-17T02:42:33.252Z,60.72
2022-12-17T02:45:19.899Z,58.10
2022-12-17T02:48:06.301Z,54.65
2022-12-17T02:50:51.337Z,49.15
2022-12-17T02:53:40.118Z,44.05
2022-12-17T02:56:25.174Z,42.45
2022-12-17T02:59:10.367Z,48.80
2022-12-17T03:01:56.984Z,49.30
2022-12-17T03:04:42.415Z,51.38
2022-12-17T03:07:27.818Z,47.05
2022-12-17T03:10:12.993Z,39.65
2022-12-17T03:13:00.954Z,42.22
2022-12-17T03:15:46.244Z,47.35
2022-12-17T03:18:32.682Z,36.97
2022-12-17T03:21:17.946Z,38.60
2022-12-17T03:24:02.903Z,35.92
2022-12-17T03:26:47.951Z,30.75
2022-12-17T03:29:32.821Z,36.38
2022-12-17T03:32:17.743Z,37.53
2022-12-17T03:35:02.563Z,36.55
2022-12-17T03:37:47.567Z,31.98
2022-12-17T03:40:32.672Z,31.02
2022-12-17T03:43:24.584Z,27.23
2022-12-17T03:46:12.931Z,31.63
2022-12-17T03:48:58.204Z,33.92
2022-12-17T03:51:43.136Z,34.20
2022-12-17T03:54:28.059Z,31.73
2022-12-17T03:57:16.028Z,31.33
2022-12-17T04:00:01.461Z,42.92
2022-12-17T04:02:46.575Z,35.05
2022-12-17T04:05:31.656Z,37.78
2022-12-17T04:08:16.823Z,38.10
2022-12-17T04:11:01.996Z,43.03
2022-12-17T04:13:47.594Z,45.42
2022-12-17T04:16:33.374Z,41.47
2022-12-17T04:19:18.515Z,49.00
2022-12-17T04:22:03.757Z,46.25
2022-12-17T04:24:48.575Z,43.88
2022-12-17T04:27:33.599Z,44.55
2022-12-17T04:30:18.940Z,50.67
2022-12-17T04:33:04.278Z,52.20
2022-12-17T04:35:49.461Z,54.47
2022-12-17T04:38:34.600Z,52.28
2022-12-17T04:41:19.999Z,51.65
2022-12-17T04:44:04.917Z,43.63
2022-12-17T04:46:50.219Z,47.53
2022-12-17T04:49:35.371Z,52.53
2022-12-17T04:52:20.779Z,51.03
2022-12-17T04:55:06.068Z,56.05
2022-12-17T04:57:51.238Z,47.45
2022-12-17T05:00:36.427Z,57.38
2022-12-17T05:03:25.725Z,57.15
2022-12-17T05:06:10.873Z,47.45
2022-12-17T05:08:55.883Z,50.33
2022-12-17T05:11:41.292Z,49.47
2022-12-17T05:14:26.457Z,58.08
2022-12-17T05:17:11.392Z,45.53
2022-12-17T05:19:56.689Z,45.83
2022-12-17T05:22:41.667Z,55.45
2022-12-17T05:25:27.001Z,52.00
2022-12-17T05:28:12.139Z,47.25
2022-12-17T05:31:00.110Z,50.75
2022-12-17T05:33:45.673Z,45.08
2022-12-17T05:36:30.878Z,47.90
2022-12-17T05:39:15.768Z,47.55
2022-12-17T05:42:00.623Z,49.80
2022-12-17T05:44:45.770Z,48.28
2022-12-17T05:47:31.090Z,42.50
2022-12-17T05:50:23.758Z,47.10
2022-12-17T05:53:08.578Z,47.08
2022-12-17T05:55:53.787Z,41.83
2022-12-17T05:58:39.095Z,43.75
2022-12-17T06:01:24.862Z,42.10
2022-12-17T06:04:10.109Z,39.30
2022-12-17T06:06:55.404Z,39.97
2022-12-17T06:09:40.712Z,32.53
2022-12-17T06:12:25.988Z,35.85
2022-12-17T06:15:11.102Z,41.88
2022-12-17T06:17:56.172Z,42.85
2022-12-17T06:20:41.055Z,34.72
2022-12-17T06:23:29.286Z,36.22
2022-12-17T06:26:15.300Z,37.53
2022-12-17T06:29:00.924Z,39.78
2022-12-17T06:31:46.528Z,42.78
2022-12-17T06:34:31.693Z,35.95
2022-12-17T06:37:16.874Z,30.08
2022-12-17T06:40:01.750Z,30.17
2022-12-17T06:42:46.939Z,35.58
2022-12-17T06:45:32.123Z,40.85
2022-12-17T06:48:25.850Z,35.67
2022-12-17T06:51:14.596Z,40.88
2022-12-17T06:54:00.800Z,36.97
2022-12-17T06:56:46.033Z,35.47
2022-12-17T06:59:31.145Z,37.60
2022-12-17T07:02:16.271Z,35.38
2022-12-17T07:05:01.578Z,38.53
2022-12-17T07:07:46.704Z,37.58
2022-12-17T07:10:31.641Z,38.42
2022-12-17T07:13:26.190Z,37.90
2022-12-17T07:16:11.969Z,39.60
2022-12-17T07:18:57.768Z,41.92
2022-12-17T07:21:43.057Z,36.28
2022-12-17T07:24:28.338Z,36.00
2022-12-17T07:27:13.258Z,38.22
2022-12-17T07:29:58.407Z,44.30
2022-12-17T07:32:43.559Z,41.85
2022-12-17T07:35:28.635Z,39.28
2022-12-17T07:38:18.386Z,40.22
2022-12-17T07:41:04.181Z,39.38
2022-12-17T07:43:52.937Z,36.15
2022-12-17T07:46:38.544Z,34.30
2022-12-17T07:49:25.895Z,39.78
2022-12-17T07:52:12.079Z,38.95
2022-12-17T07:54:57.334Z,36.65
2022-12-17T07:57:42.865Z,43.58
2022-12-17T08:00:28.798Z,39.33
2022-12-17T08:03:17.963Z,37.60
2022-12-17T08:06:03.253Z,37.22
2022-12-17T08:08:48.636Z,39.40
2022-12-17T08:11:33.859Z,39.53
2022-12-17T08:14:18.844Z,36.50
2022-12-17T08:17:04.097Z,40.58
2022-12-17T08:19:49.353Z,38.63
2022-12-17T08:22:34.380Z,41.10
2022-12-17T08:25:19.492Z,37.42
2022-12-17T08:28:07.388Z,37.72
2022-12-17T08:30:55.842Z,37.72
2022-12-17T08:33:41.264Z,43.95
2022-12-17T08:36:27.660Z,43.35
2022-12-17T08:39:12.876Z,42.15
2022-12-17T08:42:03.940Z,43.03
2022-12-17T08:44:49.671Z,37.70
2022-12-17T08:47:34.656Z,37.30
2022-12-17T08:50:19.787Z,35.90
2022-12-17T08:53:05.040Z,36.63
2022-12-17T08:55:49.991Z,37.47
2022-12-17T08:58:35.068Z,34.88
2022-12-17T09:01:20.227Z,39.13
2022-12-17T09:04:05.652Z,40.58
2022-12-17T09:06:52.084Z,38.65
2022-12-17T09:09:37.381Z,37.72
2022-12-17T09:12:22.622Z,34.20
2022-12-17T09:15:07.895Z,44.05
2022-12-17T09:17:53.083Z,42.47
2022-12-17T09:20:39.098Z,35.13
2022-12-17T09:23:24.231Z,42.25
2022-12-17T09:26:16.412Z,44.00
2022-12-17T09:29:01.598Z,44.60
2022-12-17T09:31:46.723Z,40.45
2022-12-17T09:34:31.717Z,41.38
2022-12-17T09:37:19.210Z,42.45
2022-12-17T09:40:04.560Z,40.83
2022-12-17T09:43:10.582Z,49.70
2022-12-17T09:46:09.522Z,49.75
2022-12-17T09:49:01.533Z,46.72
2022-12-17T09:51:47.748Z,50.25
2022-12-17T09:55:01.460Z,47.65
2022-12-17T09:57:49.519Z,50.30
2022-12-17T10:00:42.063Z,45.42
2022-12-17T10:03:45.901Z,53.50
2022-12-17T10:06:35.781Z,53.28
2022-12-17T10:09:28.737Z,58.00
2022-12-17T10:12:14.394Z,50.95
2022-12-17T10:14:59.623Z,54.75
2022-12-17T10:17:44.822Z,53.47
2022-12-17T10:20:57.535Z,54.05
2022-12-17T10:23:44.226Z,57.45
2022-12-17T10:26:36.138Z,59.95
2022-12-17T10:29:30.042Z,57.65
2022-12-17T10:32:18.704Z,53.85
2022-12-17T10:35:05.890Z,60.13
2022-12-17T10:37:53.337Z,54.63
2022-12-17T10:40:47.658Z,56.85
2022-12-17T10:43:44.033Z,55.97
2022-12-17T10:46:29.303Z,59.20
2022-12-17T10:49:29.930Z,56.17
2022-12-17T10:52:25.439Z,54.00
2022-12-17T10:55:16.191Z,56.28
2022-12-17T10:58:01.783Z,53.80
2022-12-17T11:00:56.689Z,47.35
2022-12-17T11:03:46.398Z,53.97
2022-12-17T11:06:37.478Z,53.83
2022-12-17T11:09:33.666Z,47.72
2022-12-17T11:12:19.846Z,52.30
2022-12-17T11:15:09.673Z,52.00
2022-12-17T11:17:56.034Z,62.92
2022-12-17T11:20:43.562Z,55.15
2022-12-17T11:23:36.720Z,57.30
2022-12-17T11:26:26.530Z,54.45
2022-12-17T11:29:11.724Z,54.00
2022-12-17T11:32:23.620Z,54.28
2022-12-17T11:35:43.259Z,53.58
2022-12-17T11:38:52.528Z,59.35
2022-12-17T11:42:00.962Z,50.28
2022-12-17T11:44:59.291Z,56.00
2022-12-17T11:47:57.544Z,56.85
2022-12-17T11:50:51.988Z,60.25
2022-12-17T11:53:51.083Z,55.10
2022-12-17T11:56:46.276Z,49.20
2022-12-17T11:59:52.859Z,53.63
2022-12-17T12:02:58.267Z,53.65
2022-12-17T12:06:11.458Z,56.92
2022-12-17T12:09:02.979Z,56.28
2022-12-17T12:11:57.730Z,59.20
2022-12-17T12:15:01.866Z,63.97
2022-12-17T12:18:05.562Z,57.13
2022-12-17T12:21:24.885Z,66.53
2022-12-17T12:24:27.015Z,61.65
2022-12-17T12:27:21.799Z,66.47
2022-12-17T12:30:29.088Z,62.55
2022-12-17T12:33:22.918Z,61.25
2022-12-17T12:36:19.175Z,65.22
2022-12-17T12:39:05.325Z,63.95
2022-12-17T12:42:09.417Z,59.20
2022-12-17T12:45:19.169Z,55.35
2022-12-17T12:48:25.571Z,54.25
2022-12-17T12:51:41.880Z,50.65
2022-12-17T12:55:02.910Z,52.97
2022-12-17T12:57:50.754Z,52.00
2022-12-17T13:00:56.305Z,52.90
2022-12-17T13:03:49.733Z,50.40
2022-12-17T13:06:39.997Z,46.20
2022-12-17T13:09:15.776Z,50.25
2022-12-17T13:12:00.174Z,57.97
2022-12-17T13:14:29.163Z,55.75
2022-12-17T13:17:08.061Z,61.33
2022-12-17T13:19:47.346Z,55.75
2022-12-17T13:22:23.781Z,54.17
2022-12-17T13:24:52.860Z,54.33
2022-12-17T13:27:31.193Z,59.47
2022-12-17T13:29:59.859Z,65.60
2022-12-17T13:32:33.994Z,55.83
2022-12-17T13:35:12.779Z,54.85
2022-12-17T13:37:59.974Z,52.88
2022-12-17T13:40:45.458Z,59.88
2022-12-17T13:43:18.028Z,58.85
2022-12-17T13:45:44.872Z,63.75
2022-12-17T13:48:21.337Z,64.90
2022-12-17T13:50:59.979Z,61.20
2022-12-17T13:53:27.615Z,61.38
2022-12-17T13:55:57.044Z,53.70
2022-12-17T13:58:26.927Z,50.47
2022-12-17T14:01:14.650Z,60.78
2022-12-17T14:06:37.848Z,51.88
2022-12-17T14:09:04.808Z,67.50
2022-12-17T14:11:50.455Z,59.35
2022-12-17T14:14:31.360Z,53.53
2022-12-17T14:19:24.776Z,55.92
2022-12-17T14:21:51.621Z,56.25
2022-12-17T14:24:23.189Z,55.00
2022-12-17T14:26:50.977Z,50.20
2022-12-17T14:29:26.019Z,61.53
2022-12-17T14:31:57.729Z,67.25
2022-12-17T14:34:24.926Z,60.40
2022-12-17T14:37:18.490Z,67.63
2022-12-17T14:39:46.821Z,55.22
2022-12-17T14:42:26.441Z,63.50
2022-12-17T14:44:55.802Z,64.45
2022-12-17T14:47:30.053Z,60.85
2022-12-17T14:50:11.836Z,62.33
2022-12-17T14:52:42.645Z,57.95
2022-12-17T14:55:35.389Z,83.88
2022-12-17T14:58:14.061Z,59.78
2022-12-17T15:00:43.386Z,56.88
2022-12-17T15:03:11.919Z,59.53
2022-12-17T15:05:38.689Z,66.78
2022-12-17T15:08:05.656Z,53.20
2022-12-17T15:10:32.182Z,68.63
2022-12-17T15:12:58.720Z,74.68
2022-12-17T15:15:25.250Z,68.88
2022-12-17T15:17:51.815Z,61.88
2022-12-17T15:20:20.720Z,55.92
2022-12-17T15:22:47.876Z,55.83
2022-12-17T15:25:16.117Z,61.78
2022-12-17T15:27:42.718Z,62.95
2022-12-17T15:30:19.226Z,64.47
2022-12-17T15:32:46.187Z,60.58
2022-12-17T15:35:13.220Z,69.78
2022-12-17T15:37:39.855Z,78.78
2022-12-17T15:40:07.209Z,79.90
2022-12-17T15:42:52.465Z,72.30
2022-12-17T15:45:19.453Z,70.80
2022-12-17T15:47:46.047Z,73.95
2022-12-17T15:50:12.590Z,81.22
2022-12-17T15:52:39.078Z,75.22
2022-12-17T15:55:06.004Z,77.93
2022-12-17T15:57:32.538Z,86.88
2022-12-17T15:59:59.174Z,86.53
2022-12-17T16:02:26.025Z,85.47
2022-12-17T16:04:52.807Z,80.80
2022-12-17T16:07:19.323Z,69.22
2022-12-17T16:09:45.863Z,84.43
2022-12-17T16:12:12.418Z,76.47
2022-12-17T16:14:38.908Z,76.85
2022-12-17T16:17:05.437Z,79.80
2022-12-17T16:19:31.995Z,78.10
2022-12-17T16:21:58.534Z,76.97
2022-12-17T16:24:25.047Z,66.97
2022-12-17T16:26:51.579Z,69.28
2022-12-17T16:29:18.148Z,77.00
2022-12-17T16:31:46.107Z,69.88
2022-12-17T16:34:13.279Z,68.53
2022-12-17T16:36:39.977Z,89.00
2022-12-17T16:39:06.634Z,78.03
2022-12-17T16:41:33.602Z,77.30
2022-12-17T16:44:00.829Z,74.35
2022-12-17T16:46:32.750Z,80.22
2022-12-17T16:49:04.545Z,71.70
2022-12-17T16:51:31.088Z,85.45
2022-12-17T16:53:58.237Z,77.32
2022-12-17T16:56:28.505Z,67.93
2022-12-17T16:58:55.453Z,146.48
2022-12-17T17:01:28.002Z,78.20
2022-12-17T17:03:55.431Z,64.95
2022-12-17T17:06:22.679Z,84.90
2022-12-17T17:08:49.558Z,96.03
2022-12-17T17:11:21.244Z,111.88
2022-12-17T17:13:49.746Z,59.58
2022-12-17T17:16:17.642Z,62.38
2022-12-17T17:18:44.241Z,64.57
2022-12-17T17:21:23.388Z,66.63
2022-12-17T17:23:53.482Z,70.60
2022-12-17T17:26:24.327Z,63.50
2022-12-17T17:28:51.860Z,102.40
2022-12-17T17:31:18.816Z,60.47
2022-12-17T17:33:48.656Z,61.22
2022-12-17T17:36:19.504Z,57.65
2022-12-17T17:41:15.585Z,54.45
2022-12-17T17:43:42.225Z,53.15
2022-12-17T17:46:11.720Z,52.45
2022-12-17T17:48:38.615Z,52.92
2022-12-17T17:51:29.495Z,63.85
2022-12-17T17:54:09.641Z,66.80
2022-12-17T17:56:41.315Z,82.05
2022-12-17T17:59:13.248Z,65.70
2022-12-17T18:01:42.616Z,63.00
2022-12-17T18:04:15.304Z,110.83
2022-12-17T18:07:02.535Z,113.28
2022-12-17T18:09:30.085Z,85.78
2022-12-17T18:11:56.618Z,67.88
2022-12-17T18:14:23.172Z,55.20
2022-12-17T18:16:49.756Z,59.50
2022-12-17T18:19:19.718Z,50.25
2022-12-17T18:21:47.406Z,50.63
2022-12-17T18:24:19.583Z,86.05
2022-12-17T18:26:47.983Z,54.33
2022-12-17T18:29:16.801Z,72.70
2022-12-17T18:31:48.489Z,55.60
2022-12-17T18:34:20.547Z,54.83
2022-12-17T18:36:48.244Z,68.32
2022-12-17T18:39:16.038Z,109.40
2022-12-17T18:42:02.214Z,115.40
2022-12-17T18:44:29.637Z,139.75
2022-12-17T18:46:56.311Z,109.95
2022-12-17T18:49:26.665Z,108.55
2022-12-17T18:51:54.227Z,82.93
2022-12-17T18:54:23.198Z,111.40
2022-12-17T18:57:01.051Z,74.00
2022-12-17T18:59:29.700Z,75.85
2022-12-17T19:01:56.648Z,90.63
2022-12-17T19:04:23.973Z,81.60
2022-12-17T19:06:53.508Z,77.05
2022-12-17T19:09:23.483Z,254.00
2022-12-17T19:11:50.791Z,80.20
2022-12-17T19:14:17.967Z,75.68
2022-12-17T19:16:45.139Z,66.00
2022-12-17T19:19:13.093Z,86.43
2022-12-17T19:21:40.172Z,70.72
2022-12-17T19:24:09.081Z,63.20
2022-12-17T19:26:35.808Z,79.70
2022-12-17T19:29:03.051Z,91.30
2022-12-17T19:31:31.375Z,61.33
2022-12-17T19:33:59.985Z,60.60
2022-12-17T19:36:28.736Z,62.17
2022-12-17T19:38:57.526Z,62.65
2022-12-17T19:41:25.336Z,54.72
2022-12-17T19:43:57.028Z,72.82
2022-12-17T19:46:24.998Z,60.92
2022-12-17T19:48:52.514Z,92.55
2022-12-17T19:51:22.292Z,115.78
2022-12-17T19:53:49.997Z,62.38
2022-12-17T19:56:27.196Z,79.55
2022-12-17T19:59:00.902Z,208.15
2022-12-17T20:01:32.589Z,150.98
2022-12-17T20:03:59.911Z,68.00
2022-12-17T20:06:29.676Z,72.65
2022-12-17T20:08:58.150Z,79.30
2022-12-17T20:11:33.959Z,56.80
2022-12-17T20:14:01.763Z,76.55
2022-12-17T20:16:30.464Z,68.55
2022-12-17T20:18:59.655Z,61.95
2022-12-17T20:21:26.204Z,44.72
2022-12-17T20:23:52.785Z,46.88
2022-12-17T20:26:19.409Z,76.50
2022-12-17T20:28:46.291Z,48.33
2022-12-17T20:31:13.127Z,54.10
2022-12-17T20:33:39.776Z,108.78
2022-12-17T20:36:12.654Z,68.18
2022-12-17T20:38:39.613Z,51.00
2022-12-17T20:41:27.876Z,50.10
2022-12-17T20:43:56.221Z,63.65
2022-12-17T20:46:24.255Z,61.05
2022-12-17T20:48:50.839Z,103.47
2022-12-17T20:51:22.699Z,63.15
2022-12-17T20:53:49.448Z,61.33
2022-12-17T20:56:17.812Z,54.58
2022-12-17T20:58:44.568Z,63.30
2022-12-17T21:01:12.964Z,55.92
2022-12-17T21:03:39.975Z,65.63
2022-12-17T21:06:12.302Z,82.30
2022-12-17T21:08:42.396Z,89.32
2022-12-17T21:11:13.123Z,75.97
2022-12-17T21:13:39.736Z,61.47
2022-12-17T21:16:10.797Z,66.50
2022-12-17T21:18:37.707Z,61.78
2022-12-17T21:21:07.531Z,95.90
2022-12-17T21:23:36.256Z,76.43
2022-12-17T21:26:09.940Z,84.90
2022-12-17T21:28:38.381Z,107.22
2022-12-17T21:31:05.759Z,106.80
2022-12-17T21:33:32.382Z,58.92
2022-12-17T21:36:01.172Z,87.65
2022-12-17T21:38:34.279Z,70.82
2022-12-17T21:41:06.557Z,201.82
2022-12-17T21:43:34.243Z,88.43
2022-12-17T21:46:01.021Z,66.38
2022-12-17T21:48:27.675Z,82.55
2022-12-17T21:50:54.431Z,68.90
2022-12-17T21:53:21.362Z,94.90
2022-12-17T21:55:48.474Z,58.63
2022-12-17T21:58:15.534Z,75.45
2022-12-17T22:00:42.644Z,135.93
2022-12-17T22:03:09.197Z,85.93
2022-12-17T22:05:37.432Z,60.80
2022-12-17T22:08:04.973Z,63.70
2022-12-17T22:10:42.355Z,60.60
2022-12-17T22:13:34.162Z,60.92
2022-12-17T22:16:01.282Z,62.00
2022-12-17T22:18:27.926Z,51.78
2022-12-17T22:20:59.377Z,77.03
2022-12-17T22:23:25.981Z,60.17
2022-12-17T22:25:52.857Z,57.60
2022-12-17T22:28:19.375Z,52.22
2022-12-17T22:31:04.675Z,51.28
2022-12-17T22:34:10.316Z,59.33
2022-12-17T22:38:23.524Z,74.88
2022-12-17T22:42:31.025Z,61.65
2022-12-17T22:44:37.196Z,56.53
2022-12-17T22:45:10.183Z,55.95
2022-12-17T22:47:37.907Z,59.22
2022-12-17T22:50:04.742Z,67.13
2022-12-17T22:52:31.940Z,62.10
2022-12-17T22:54:59.149Z,52.50
2022-12-17T22:57:36.255Z,61.13
2022-12-17T23:00:16.805Z,59.38
2022-12-17T23:02:43.463Z,65.93
2022-12-17T23:05:10.021Z,64.32
2022-12-17T23:07:36.634Z,188.35
2022-12-17T23:10:04.939Z,66.18
2022-12-17T23:12:50.054Z,102.28
2022-12-17T23:15:19.878Z,97.55
2022-12-17T23:17:46.494Z,161.60
2022-12-17T23:20:14.143Z,79.40
2022-12-17T23:22:40.727Z,70.10
2022-12-17T23:25:08.011Z,69.68
2022-12-17T23:27:34.566Z,88.50
2022-12-17T23:30:01.190Z,68.00
2022-12-17T23:32:27.835Z,77.55
2022-12-17T23:34:54.387Z,64.13
2022-12-17T23:37:20.908Z,82.88
2022-12-17T23:39:47.408Z,66.88
2022-12-17T23:42:13.940Z,66.75
2022-12-17T23:44:40.504Z,91.20
2022-12-17T23:47:07.020Z,78.03
2022-12-17T23:49:33.511Z,141.02
2022-12-17T23:52:00.038Z,98.90
2022-12-17T23:54:26.604Z,71.30
2022-12-17T23:56:53.138Z,75.57
2022-12-17T23:59:19.705Z,80.53
